createdAt,value
2023-02-17T00:00:17.710Z,15.17
2023-02-17T00:02:44.296Z,15.15
2023-02-17T00:05:10.891Z,15.20
2023-02-17T00:07:37.538Z,15.16
2023-02-17T00:10:04.259Z,15.16
2023-02-17T00:12:30.901Z,15.16
2023-02-17T00:14:57.477Z,15.15
2023-02-17T00:17:24.108Z,15.16
2023-02-17T00:19:50.711Z,15.16
2023-02-17T00:22:17.263Z,15.16
2023-02-17T00:24:43.981Z,15.14
2023-02-17T00:27:10.994Z,15.14
2023-02-17T00:29:37.661Z,15.15
2023-02-17T00:32:06.993Z,15.14
2023-02-17T00:34:33.684Z,15.15
2023-02-17T00:37:00.437Z,15.14
2023-02-17T00:39:27.076Z,15.14
2023-02-17T00:41:53.641Z,15.11
2023-02-17T00:44:23.376Z,15.14
2023-02-17T00:46:50.480Z,15.14
2023-02-17T00:49:20.131Z,15.11
2023-02-17T00:51:47.389Z,15.11
2023-02-17T00:54:15.209Z,15.12
2023-02-17T00:56:42.001Z,15.10
2023-02-17T00:59:09.864Z,15.12
2023-02-17T01:01:37.290Z,15.09
2023-02-17T01:04:04.478Z,15.09
2023-02-17T01:06:34.463Z,15.11
2023-02-17T01:09:01.509Z,15.08
2023-02-17T01:11:31.959Z,15.08
2023-02-17T01:13:59.838Z,15.08
2023-02-17T01:16:35.306Z,15.10
2023-02-17T01:19:08.280Z,15.10
2023-02-17T01:21:35.803Z,15.07
2023-02-17T01:24:04.526Z,15.09
2023-02-17T01:26:33.809Z,15.08
2023-02-17T01:29:00.700Z,15.06
2023-02-17T01:31:27.869Z,15.08
2023-02-17T01:33:56.944Z,15.08
2023-02-17T01:36:24.272Z,15.07
2023-02-17T01:38:51.246Z,15.07
2023-02-17T01:41:19.773Z,15.07
2023-02-17T01:44:05.092Z,15.07
2023-02-17T01:46:36.334Z,15.05
2023-02-17T01:49:28.101Z,15.05
2023-02-17T01:52:03.730Z,15.05
2023-02-17T01:54:37.624Z,15.04
2023-02-17T01:57:04.919Z,15.04
2023-02-17T01:59:32.512Z,15.05
2023-02-17T02:02:03.862Z,15.04
2023-02-17T02:04:34.506Z,15.04
2023-02-17T02:07:01.132Z,15.03
2023-02-17T02:09:52.945Z,15.02
2023-02-17T02:12:25.681Z,15.01
2023-02-17T02:14:54.965Z,14.96
2023-02-17T02:17:36.820Z,14.97
2023-02-17T02:20:18.247Z,14.98
2023-02-17T02:22:56.619Z,14.97
2023-02-17T02:25:52.197Z,14.97
2023-02-17T02:28:29.039Z,14.97
2023-02-17T02:31:14.224Z,14.98
2023-02-17T02:34:02.973Z,14.96
2023-02-17T02:36:33.045Z,14.96
2023-02-17T02:39:17.218Z,14.96
2023-02-17T02:41:55.754Z,14.96
2023-02-17T02:44:22.981Z,14.96
2023-02-17T02:46:57.477Z,14.94
2023-02-17T02:49:24.475Z,14.94
2023-02-17T02:52:13.760Z,14.94
2023-02-17T02:54:49.308Z,14.93
2023-02-17T02:57:24.730Z,14.93
2023-02-17T03:00:10.644Z,14.93
2023-02-17T03:03:03.321Z,14.92
2023-02-17T03:05:42.515Z,14.91
2023-02-17T03:08:15.611Z,14.91
2023-02-17T03:10:48.280Z,14.92
2023-02-17T03:13:16.135Z,14.91
2023-02-17T03:15:43.134Z,14.91
2023-02-17T03:18:09.885Z,14.91
2023-02-17T03:20:39.629Z,14.92
2023-02-17T03:23:07.244Z,14.91
2023-02-17T03:25:33.789Z,14.92
2023-02-17T03:28:00.325Z,14.91
2023-02-17T03:30:26.947Z,14.91
2023-02-17T03:32:53.755Z,14.90
2023-02-17T03:35:20.410Z,14.91
2023-02-17T03:37:47.033Z,14.89
2023-02-17T03:40:13.592Z,14.90
2023-02-17T03:42:40.186Z,14.90
2023-02-17T03:45:07.043Z,14.90
2023-02-17T03:47:33.632Z,14.90
2023-02-17T03:50:00.167Z,14.88
2023-02-17T03:52:26.773Z,14.85
2023-02-17T03:54:53.377Z,14.86
2023-02-17T03:57:19.927Z,14.86
2023-02-17T03:59:46.516Z,14.85
2023-02-17T04:02:13.065Z,14.85
2023-02-17T04:04:39.809Z,14.82
2023-02-17T04:07:06.413Z,14.83
2023-02-17T04:09:32.947Z,14.80
2023-02-17T04:11:59.496Z,14.81
2023-02-17T04:14:26.004Z,14.80
2023-02-17T04:16:52.511Z,14.80
2023-02-17T04:19:21.158Z,14.79
2023-02-17T04:21:47.880Z,14.74
2023-02-17T04:24:14.464Z,14.75
2023-02-17T04:26:41.073Z,14.75
2023-02-17T04:29:07.596Z,14.76
2023-02-17T04:31:34.276Z,14.77
2023-02-17T04:34:00.905Z,14.77
2023-02-17T04:36:27.412Z,14.74
2023-02-17T04:38:53.978Z,14.75
2023-02-17T04:41:20.559Z,14.75
2023-02-17T04:43:47.208Z,14.73
2023-02-17T04:46:13.805Z,14.75
2023-02-17T04:48:40.411Z,14.72
2023-02-17T04:51:07.021Z,14.73
2023-02-17T04:53:33.627Z,14.72
2023-02-17T04:56:00.246Z,14.70
2023-02-17T04:58:26.837Z,14.71
2023-02-17T05:00:53.425Z,14.70
2023-02-17T05:03:20.316Z,14.69
2023-02-17T05:05:46.997Z,14.68
2023-02-17T05:08:13.612Z,14.68
2023-02-17T05:10:40.158Z,14.65
2023-02-17T05:13:06.925Z,14.68
2023-02-17T05:15:34.966Z,14.65
2023-02-17T05:18:02.089Z,14.67
2023-02-17T05:20:28.931Z,14.66
2023-02-17T05:22:55.472Z,14.64
2023-02-17T05:25:22.068Z,14.67
2023-02-17T05:27:48.766Z,14.65
2023-02-17T05:30:15.554Z,14.65
2023-02-17T05:32:42.200Z,14.65
2023-02-17T05:35:09.317Z,14.62
2023-02-17T05:37:36.178Z,14.63
2023-02-17T05:40:02.772Z,14.64
2023-02-17T05:42:29.494Z,14.63
2023-02-17T05:44:56.432Z,14.63
2023-02-17T05:47:23.803Z,14.62
2023-02-17T05:49:50.473Z,14.62
2023-02-17T05:52:18.321Z,14.64
2023-02-17T05:54:45.177Z,14.61
2023-02-17T05:57:11.803Z,14.62
2023-02-17T05:59:38.373Z,14.63
2023-02-17T06:02:04.988Z,14.64
2023-02-17T06:04:31.800Z,14.64
2023-02-17T06:06:58.514Z,14.65
2023-02-17T06:09:25.137Z,14.64
2023-02-17T06:11:52.152Z,14.63
2023-02-17T06:14:18.762Z,14.63
2023-02-17T06:16:45.338Z,14.63
2023-02-17T06:19:11.904Z,14.65
2023-02-17T06:21:38.496Z,14.65
2023-02-17T06:24:05.509Z,14.68
2023-02-17T06:26:32.035Z,14.70
2023-02-17T06:28:58.586Z,14.70
2023-02-17T06:31:25.154Z,14.72
2023-02-17T06:33:51.825Z,14.74
2023-02-17T06:36:18.376Z,14.74
2023-02-17T06:38:44.909Z,14.75
2023-02-17T06:41:11.481Z,14.76
2023-02-17T06:43:38.049Z,14.77
2023-02-17T06:46:05.074Z,14.78
2023-02-17T06:48:33.170Z,14.78
2023-02-17T06:51:00.745Z,14.79
2023-02-17T06:53:27.377Z,14.80
2023-02-17T06:55:53.931Z,14.81
2023-02-17T06:58:20.547Z,14.82
2023-02-17T07:00:47.126Z,14.81
2023-02-17T07:03:13.839Z,14.82
2023-02-17T07:05:40.427Z,14.84
2023-02-17T07:08:07.201Z,14.85
2023-02-17T07:10:34.286Z,14.84
2023-02-17T07:13:00.909Z,14.86
2023-02-17T07:15:27.518Z,14.84
2023-02-17T07:17:54.050Z,14.86
2023-02-17T07:20:20.626Z,14.85
2023-02-17T07:22:47.186Z,14.86
2023-02-17T07:25:13.752Z,14.89
2023-02-17T07:27:40.291Z,14.88
2023-02-17T07:30:07.555Z,14.88
2023-02-17T07:32:35.516Z,14.89
2023-02-17T07:35:02.148Z,14.89
2023-02-17T07:37:28.728Z,14.90
2023-02-17T07:39:57.105Z,14.91
2023-02-17T07:42:24.343Z,14.91
2023-02-17T07:44:50.944Z,14.92
2023-02-17T07:47:17.544Z,14.92
2023-02-17T07:49:44.268Z,14.89
2023-02-17T07:52:10.954Z,14.90
2023-02-17T07:54:37.548Z,14.89
2023-02-17T07:57:04.214Z,14.88
2023-02-17T07:59:30.745Z,14.87
2023-02-17T08:01:57.331Z,14.87
2023-02-17T08:04:24.031Z,14.86
2023-02-17T08:06:50.692Z,14.85
2023-02-17T08:09:35.925Z,14.83
2023-02-17T08:12:21.027Z,14.82
2023-02-17T08:14:47.540Z,14.80
2023-02-17T08:17:14.132Z,14.82
2023-02-17T08:19:48.125Z,14.79
2023-02-17T08:22:17.035Z,14.79
2023-02-17T08:24:43.704Z,14.77
2023-02-17T08:27:10.298Z,14.78
2023-02-17T08:29:36.885Z,14.78
2023-02-17T08:32:04.087Z,14.78
2023-02-17T08:34:33.786Z,14.78
2023-02-17T08:37:01.745Z,14.79
2023-02-17T08:39:28.679Z,14.76
2023-02-17T08:41:55.727Z,14.76
2023-02-17T08:44:22.680Z,14.75
2023-02-17T08:46:51.058Z,14.76
2023-02-17T08:49:21.615Z,14.72
2023-02-17T08:51:48.567Z,14.77
2023-02-17T08:54:15.150Z,14.76
2023-02-17T08:56:42.387Z,14.78
2023-02-17T08:59:10.876Z,14.81
2023-02-17T09:01:38.667Z,14.85
2023-02-17T09:04:07.866Z,14.87
2023-02-17T09:06:42.893Z,14.89
2023-02-17T09:09:11.584Z,14.91
2023-02-17T09:11:38.652Z,14.95
2023-02-17T09:14:05.646Z,14.95
2023-02-17T09:16:32.644Z,14.98
2023-02-17T09:18:59.238Z,15.00
2023-02-17T09:21:26.098Z,15.02
2023-02-17T09:23:53.891Z,15.05
2023-02-17T09:26:21.133Z,15.05
2023-02-17T09:28:48.618Z,15.07
2023-02-17T09:31:18.115Z,15.08
2023-02-17T09:33:45.351Z,15.11
2023-02-17T09:36:14.871Z,15.10
2023-02-17T09:38:42.178Z,15.13
2023-02-17T09:41:23.581Z,15.15
2023-02-17T09:43:51.911Z,15.15
2023-02-17T09:46:30.299Z,15.15
2023-02-17T09:49:02.151Z,15.17
2023-02-17T09:51:37.647Z,15.17
2023-02-17T09:54:11.072Z,15.18
2023-02-17T09:56:41.392Z,15.18
2023-02-17T09:59:42.962Z,15.20
2023-02-17T10:02:17.617Z,15.20
2023-02-17T10:04:47.126Z,15.20
2023-02-17T10:07:20.659Z,15.20
2023-02-17T10:09:52.649Z,15.19
2023-02-17T10:12:25.116Z,15.22
2023-02-17T10:14:59.672Z,15.22
2023-02-17T10:17:29.080Z,15.23
2023-02-17T10:20:06.913Z,15.23
2023-02-17T10:22:34.526Z,15.24
2023-02-17T10:25:02.712Z,15.23
2023-02-17T10:27:53.662Z,15.26
2023-02-17T10:30:57.711Z,15.25
2023-02-17T10:33:45.044Z,15.27
2023-02-17T10:36:33.999Z,15.27
2023-02-17T10:39:08.718Z,15.29
2023-02-17T10:41:38.039Z,15.29
2023-02-17T10:44:11.949Z,15.28
2023-02-17T10:46:42.191Z,15.29
2023-02-17T10:49:28.190Z,15.30
2023-02-17T10:51:55.866Z,15.30
2023-02-17T10:54:40.268Z,15.34
2023-02-17T10:57:12.845Z,15.33
2023-02-17T10:59:42.949Z,15.35
2023-02-17T11:02:17.559Z,15.37
2023-02-17T11:04:46.539Z,15.37
2023-02-17T11:07:16.733Z,15.37
2023-02-17T11:09:50.457Z,15.38
2023-02-17T11:12:22.922Z,15.39
2023-02-17T11:14:51.945Z,15.39
2023-02-17T11:17:39.888Z,15.40
2023-02-17T11:20:27.234Z,15.40
2023-02-17T11:23:04.675Z,15.41
2023-02-17T11:25:34.176Z,15.40
2023-02-17T11:28:24.944Z,15.41
2023-02-17T11:30:54.970Z,15.41
2023-02-17T11:33:37.610Z,15.42
2023-02-17T11:36:07.025Z,15.43
2023-02-17T11:38:39.908Z,15.45
2023-02-17T11:41:07.728Z,15.44
2023-02-17T11:43:36.067Z,15.45
2023-02-17T11:46:13.808Z,15.47
2023-02-17T11:49:01.738Z,15.46
2023-02-17T11:51:28.215Z,15.47
2023-02-17T11:54:20.637Z,15.45
2023-02-17T11:56:59.377Z,15.48
2023-02-17T11:59:34.504Z,15.49
2023-02-17T12:02:44.363Z,15.48
2023-02-17T12:05:13.922Z,15.50
2023-02-17T12:08:10.215Z,15.52
2023-02-17T12:10:56.290Z,15.52
2023-02-17T12:13:35.916Z,15.53
2023-02-17T12:16:17.467Z,15.54
2023-02-17T12:18:53.932Z,15.54
2023-02-17T12:21:23.160Z,15.55
2023-02-17T12:24:05.530Z,15.57
2023-02-17T12:26:32.965Z,15.56
2023-02-17T12:28:59.441Z,15.57
2023-02-17T12:31:57.245Z,15.58
2023-02-17T12:34:31.692Z,15.57
2023-02-17T12:36:59.461Z,15.57
2023-02-17T12:39:34.791Z,15.59
2023-02-17T12:42:06.720Z,15.58
2023-02-17T12:44:43.851Z,15.58
2023-02-17T12:47:26.846Z,15.58
2023-02-17T12:50:02.086Z,15.60
2023-02-17T12:52:38.761Z,15.61
2023-02-17T12:55:20.918Z,15.61
2023-02-17T12:57:58.616Z,15.62
2023-02-17T13:00:33.539Z,15.64
2023-02-17T13:03:02.145Z,15.63
2023-02-17T13:05:33.390Z,15.64
2023-02-17T13:08:07.021Z,15.64
2023-02-17T13:10:36.993Z,15.65
2023-02-17T13:13:26.737Z,15.63
2023-02-17T13:16:05.364Z,15.66
2023-02-17T13:18:35.701Z,15.67
2023-02-17T13:21:16.290Z,15.66
2023-02-17T13:23:45.915Z,15.67
2023-02-17T13:26:17.980Z,15.68
2023-02-17T13:28:45.510Z,15.68
2023-02-17T13:31:19.487Z,15.67
2023-02-17T13:33:58.365Z,15.72
2023-02-17T13:36:27.602Z,15.72
2023-02-17T13:39:00.525Z,15.72
2023-02-17T13:41:43.765Z,15.73
2023-02-17T13:44:19.177Z,15.73
2023-02-17T13:46:47.164Z,15.73
2023-02-17T13:49:22.332Z,15.74
2023-02-17T13:51:49.015Z,15.72
2023-02-17T13:54:21.235Z,15.76
2023-02-17T13:56:52.490Z,15.76
2023-02-17T13:59:26.244Z,15.77
2023-02-17T14:01:54.923Z,15.78
2023-02-17T14:04:31.337Z,15.79
2023-02-17T14:07:04.398Z,15.80
2023-02-17T14:09:33.091Z,15.80
2023-02-17T14:12:04.160Z,15.80
2023-02-17T14:14:37.146Z,15.82
2023-02-17T14:17:07.154Z,15.80
2023-02-17T14:20:00.904Z,15.82
2023-02-17T14:22:33.519Z,15.82
2023-02-17T14:25:11.713Z,15.84
2023-02-17T14:27:48.603Z,15.86
2023-02-17T14:30:15.335Z,15.85
2023-02-17T14:32:41.949Z,15.87
2023-02-17T14:35:14.598Z,15.87
2023-02-17T14:37:42.342Z,15.89
2023-02-17T14:40:20.136Z,15.88
2023-02-17T14:42:47.712Z,15.90
2023-02-17T14:45:15.345Z,15.91
2023-02-17T14:47:45.684Z,15.90
2023-02-17T14:50:13.698Z,15.92
2023-02-17T14:52:44.339Z,15.92
2023-02-17T14:55:26.752Z,15.93
2023-02-17T14:57:54.095Z,15.94
2023-02-17T15:00:20.853Z,15.95
2023-02-17T15:02:47.861Z,15.95
2023-02-17T15:05:14.492Z,15.97
2023-02-17T15:07:42.365Z,15.97
2023-02-17T15:10:27.133Z,15.98
2023-02-17T15:12:54.077Z,15.98
2023-02-17T15:15:21.163Z,15.99
2023-02-17T15:17:47.786Z,16.00
2023-02-17T15:20:16.616Z,16.01
2023-02-17T15:22:44.359Z,16.01
2023-02-17T15:25:19.234Z,16.01
2023-02-17T15:27:46.602Z,16.00
2023-02-17T15:30:16.665Z,16.02
2023-02-17T15:32:43.598Z,16.03
2023-02-17T15:35:22.840Z,16.02
2023-02-17T15:37:50.225Z,16.02
2023-02-17T15:40:24.555Z,16.04
2023-02-17T15:43:03.381Z,16.04
2023-02-17T15:45:30.900Z,16.04
2023-02-17T15:48:25.618Z,16.05
2023-02-17T15:50:53.064Z,16.04
2023-02-17T15:53:19.993Z,16.04
2023-02-17T15:55:46.889Z,16.06
2023-02-17T15:58:17.519Z,16.07
2023-02-17T16:00:49.788Z,16.06
2023-02-17T16:03:17.148Z,16.07
2023-02-17T16:05:44.004Z,16.08
2023-02-17T16:08:10.587Z,16.08
2023-02-17T16:10:39.512Z,16.09
2023-02-17T16:13:06.139Z,16.08
2023-02-17T16:15:33.086Z,16.09
2023-02-17T16:17:59.947Z,16.09
2023-02-17T16:20:34.657Z,16.10
2023-02-17T16:23:02.279Z,16.10
2023-02-17T16:25:29.280Z,16.08
2023-02-17T16:27:55.918Z,16.08
2023-02-17T16:30:32.201Z,16.09
2023-02-17T16:32:59.559Z,16.10
2023-02-17T16:35:32.043Z,16.10
2023-02-17T16:38:02.813Z,16.10
2023-02-17T16:40:32.429Z,16.11
2023-02-17T16:42:59.174Z,16.11
2023-02-17T16:45:28.879Z,16.11
2023-02-17T16:47:57.964Z,16.12
2023-02-17T16:50:27.808Z,16.11
2023-02-17T16:52:57.078Z,16.10
2023-02-17T16:55:27.381Z,16.10
2023-02-17T16:57:53.988Z,16.10
2023-02-17T17:00:23.220Z,16.09
2023-02-17T17:02:50.131Z,16.09
2023-02-17T17:05:18.637Z,16.08
2023-02-17T17:07:45.382Z,16.09
2023-02-17T17:10:17.164Z,16.10
2023-02-17T17:12:45.975Z,16.09
2023-02-17T17:15:13.404Z,16.09
2023-02-17T17:17:46.198Z,16.08
2023-02-17T17:20:18.849Z,16.09
2023-02-17T17:22:46.726Z,16.09
2023-02-17T17:25:14.472Z,16.07
2023-02-17T17:27:41.843Z,16.08
2023-02-17T17:30:18.666Z,16.09
2023-02-17T17:32:45.627Z,16.08
2023-02-17T17:35:12.668Z,16.07
2023-02-17T17:37:39.668Z,16.06
2023-02-17T17:40:07.078Z,16.06
2023-02-17T17:42:33.751Z,16.08
2023-02-17T17:45:00.321Z,16.07
2023-02-17T17:47:30.279Z,16.08
2023-02-17T17:49:57.191Z,16.08
2023-02-17T17:52:24.274Z,16.09
2023-02-17T17:54:50.958Z,16.06
2023-02-17T17:57:17.575Z,16.07
2023-02-17T17:59:44.280Z,16.08
2023-02-17T18:02:10.843Z,16.09
2023-02-17T18:04:37.381Z,16.07
2023-02-17T18:07:03.991Z,16.06
2023-02-17T18:09:36.607Z,16.07
2023-02-17T18:12:11.112Z,16.08
2023-02-17T18:14:40.048Z,16.10
2023-02-17T18:17:08.981Z,16.08
2023-02-17T18:19:35.662Z,16.09
2023-02-17T18:22:02.319Z,16.09
2023-02-17T18:24:28.897Z,16.07
2023-02-17T18:26:55.654Z,16.07
2023-02-17T18:29:22.463Z,16.08
2023-02-17T18:31:49.221Z,16.09
2023-02-17T18:34:15.851Z,16.08
2023-02-17T18:36:42.475Z,16.10
2023-02-17T18:39:08.979Z,16.10
2023-02-17T18:41:35.655Z,16.09
2023-02-17T18:44:04.657Z,16.09
2023-02-17T18:46:33.202Z,16.09
2023-02-17T18:49:00.302Z,16.10
2023-02-17T18:51:27.736Z,16.08
2023-02-17T18:53:56.515Z,16.09
2023-02-17T18:56:25.932Z,16.07
2023-02-17T18:58:55.288Z,16.10
2023-02-17T19:01:28.513Z,16.10
2023-02-17T19:03:55.576Z,16.08
2023-02-17T19:06:25.356Z,16.09
2023-02-17T19:08:52.613Z,16.08
2023-02-17T19:11:21.711Z,16.10
2023-02-17T19:13:49.208Z,16.09
2023-02-17T19:16:22.206Z,16.11
2023-02-17T19:18:49.090Z,16.11
2023-02-17T19:21:15.807Z,16.11
2023-02-17T19:23:42.686Z,16.10
2023-02-17T19:26:11.672Z,16.11
2023-02-17T19:28:39.579Z,16.10
2023-02-17T19:31:10.624Z,16.11
2023-02-17T19:33:37.511Z,16.10
2023-02-17T19:36:10.053Z,16.12
2023-02-17T19:38:37.032Z,16.12
2023-02-17T19:41:08.501Z,16.12
2023-02-17T19:43:35.482Z,16.12
2023-02-17T19:46:02.535Z,16.12
2023-02-17T19:48:29.306Z,16.11
2023-02-17T19:51:01.657Z,16.11
2023-02-17T19:53:28.727Z,16.12
2023-02-17T19:55:55.301Z,16.13
2023-02-17T19:58:21.868Z,16.13
2023-02-17T20:00:48.775Z,16.13
2023-02-17T20:03:15.402Z,16.13
2023-02-17T20:05:42.452Z,16.12
2023-02-17T20:08:09.035Z,16.13
2023-02-17T20:10:39.558Z,16.14
2023-02-17T20:13:06.108Z,16.13
2023-02-17T20:15:32.886Z,16.13
2023-02-17T20:17:59.644Z,16.13
2023-02-17T20:20:26.233Z,16.14
2023-02-17T20:22:52.760Z,16.14
2023-02-17T20:25:19.313Z,16.16
2023-02-17T20:27:45.836Z,16.14
2023-02-17T20:30:12.752Z,16.14
2023-02-17T20:32:39.536Z,16.15
2023-02-17T20:35:06.481Z,16.14
2023-02-17T20:37:33.041Z,16.16
2023-02-17T20:39:59.594Z,16.16
2023-02-17T20:42:26.124Z,16.18
2023-02-17T20:44:54.476Z,16.16
2023-02-17T20:47:21.070Z,16.17
2023-02-17T20:49:47.823Z,16.15
2023-02-17T20:52:14.411Z,16.17
2023-02-17T20:54:41.068Z,16.17
2023-02-17T20:57:15.164Z,16.17
2023-02-17T20:59:41.738Z,16.15
2023-02-17T21:02:08.334Z,16.15
2023-02-17T21:04:34.954Z,16.17
2023-02-17T21:07:01.629Z,16.16
2023-02-17T21:09:28.458Z,16.18
2023-02-17T21:11:55.041Z,16.16
2023-02-17T21:14:21.586Z,16.17
2023-02-17T21:16:48.281Z,16.17
2023-02-17T21:19:15.198Z,16.16
2023-02-17T21:21:41.854Z,16.18
2023-02-17T21:24:08.435Z,16.18
2023-02-17T21:26:35.072Z,16.17
2023-02-17T21:29:01.756Z,16.18
2023-02-17T21:31:31.116Z,16.16
2023-02-17T21:33:58.683Z,16.19
2023-02-17T21:36:27.464Z,16.19
2023-02-17T21:38:55.550Z,16.18
2023-02-17T21:41:26.501Z,16.19
2023-02-17T21:44:12.558Z,16.18
2023-02-17T21:46:41.758Z,16.18
2023-02-17T21:49:08.337Z,16.17
2023-02-17T21:51:37.231Z,16.19
2023-02-17T21:54:05.523Z,16.18
2023-02-17T21:56:32.637Z,16.18
2023-02-17T21:58:59.223Z,16.18
2023-02-17T22:01:27.128Z,16.19
2023-02-17T22:03:54.167Z,16.19
2023-02-17T22:06:24.237Z,16.19
2023-02-17T22:08:51.005Z,16.19
2023-02-17T22:11:20.670Z,16.18
2023-02-17T22:13:47.982Z,16.19
2023-02-17T22:16:15.233Z,16.20
2023-02-17T22:18:41.990Z,16.19
2023-02-17T22:21:11.972Z,16.20
2023-02-17T22:23:39.224Z,16.19
2023-02-17T22:26:11.284Z,16.20
2023-02-17T22:28:38.195Z,16.21
2023-02-17T22:31:05.781Z,16.21
2023-02-17T22:33:32.899Z,16.20
2023-02-17T22:36:01.737Z,16.19
2023-02-17T22:38:28.725Z,16.15
2023-02-17T22:40:55.574Z,16.15
2023-02-17T22:43:22.438Z,16.13
2023-02-17T22:45:49.081Z,16.11
2023-02-17T22:48:15.691Z,16.10
2023-02-17T22:50:42.452Z,16.08
2023-02-17T22:53:09.033Z,16.09
2023-02-17T22:55:35.623Z,16.08
2023-02-17T22:58:02.205Z,16.06
2023-02-17T23:00:28.756Z,16.05
2023-02-17T23:02:55.346Z,16.05
2023-02-17T23:05:21.935Z,16.02
2023-02-17T23:07:48.586Z,16.04
2023-02-17T23:10:15.140Z,16.03
2023-02-17T23:12:41.740Z,16.03
2023-02-17T23:15:12.294Z,16.02
2023-02-17T23:17:56.328Z,15.98
2023-02-17T23:20:24.888Z,15.97
2023-02-17T23:22:51.944Z,15.97
2023-02-17T23:25:18.656Z,15.98
2023-02-17T23:27:45.228Z,15.96
2023-02-17T23:30:19.453Z,15.97
2023-02-17T23:32:46.025Z,15.96
2023-02-17T23:35:12.669Z,15.94
2023-02-17T23:37:39.262Z,15.96
2023-02-17T23:40:06.465Z,15.94
2023-02-17T23:42:33.033Z,15.94
2023-02-17T23:44:59.567Z,15.93
2023-02-17T23:47:26.277Z,15.93
2023-02-17T23:49:52.816Z,15.92
2023-02-17T23:52:19.336Z,15.92
2023-02-17T23:54:45.856Z,15.91
2023-02-17T23:57:12.476Z,15.89
2023-02-17T23:59:39.016Z,15.89
